createdAt,value
2022-08-22T00:00:32.975Z,97492.22
2022-08-22T00:03:02.621Z,97501.00
2022-08-22T00:06:09.787Z,97500.66
2022-08-22T00:08:42.946Z,97488.97
2022-08-22T00:11:15.864Z,97490.53
2022-08-22T00:13:49.036Z,97497.00
2022-08-22T00:16:33.002Z,97501.75
2022-08-22T00:19:07.351Z,97501.03
2022-08-22T00:21:39.544Z,97489.53
2022-08-22T00:24:14.264Z,97490.22
2022-08-22T00:26:45.720Z,97493.00
2022-08-22T00:29:16.569Z,97490.78
2022-08-22T00:31:48.366Z,97483.38
2022-08-22T00:34:18.381Z,97494.56
2022-08-22T00:36:48.116Z,97486.25
2022-08-22T00:39:18.298Z,97495.41
2022-08-22T00:41:56.890Z,97489.88
2022-08-22T00:44:36.830Z,97491.34
2022-08-22T00:47:15.508Z,97490.16
2022-08-22T00:49:54.589Z,97496.25
2022-08-22T00:52:33.345Z,97492.25
2022-08-22T00:55:34.963Z,97496.88
2022-08-22T00:58:26.470Z,97491.91
2022-08-22T01:00:57.124Z,97497.91
2022-08-22T01:03:54.453Z,97495.91
2022-08-22T01:06:27.920Z,97494.06
2022-08-22T01:09:02.524Z,97496.81
2022-08-22T01:11:47.618Z,97496.66
2022-08-22T01:14:35.007Z,97493.81
2022-08-22T01:17:32.688Z,97494.34
2022-08-22T01:20:38.853Z,97487.72
2022-08-22T01:23:36.444Z,97494.16
2022-08-22T01:26:46.069Z,97498.25
2022-08-22T01:29:38.047Z,97495.53
2022-08-22T01:33:01.011Z,97481.66
2022-08-22T01:36:01.567Z,97483.84
2022-08-22T01:38:44.989Z,97489.25
2022-08-22T01:41:35.504Z,97483.00
2022-08-22T01:44:13.344Z,97489.25
2022-08-22T01:46:52.048Z,97485.56
2022-08-22T01:49:22.265Z,97492.31
2022-08-22T01:51:55.068Z,97492.00
2022-08-22T01:54:32.292Z,97497.75
2022-08-22T01:57:02.201Z,97498.25
2022-08-22T01:59:36.297Z,97503.84
2022-08-22T02:02:32.154Z,97497.06
2022-08-22T02:05:02.965Z,97485.00
2022-08-22T02:07:33.581Z,97483.41
2022-08-22T02:10:07.719Z,97484.09
2022-08-22T02:12:38.749Z,97484.94
2022-08-22T02:15:13.854Z,97485.44
2022-08-22T02:18:03.719Z,97484.22
2022-08-22T02:20:34.032Z,97483.06
2022-08-22T02:23:07.568Z,97482.03
2022-08-22T02:25:47.015Z,97478.31
2022-08-22T02:28:16.912Z,97475.06
2022-08-22T02:30:48.060Z,97473.94
2022-08-22T02:33:24.490Z,97473.72
2022-08-22T02:35:54.527Z,97474.41
2022-08-22T02:38:28.757Z,97467.28
2022-08-22T02:41:04.955Z,97464.75
2022-08-22T02:43:39.342Z,97469.50
2022-08-22T02:46:15.759Z,97464.88
2022-08-22T02:48:46.644Z,97457.78
2022-08-22T02:51:20.592Z,97460.19
2022-08-22T02:53:55.167Z,97466.66
2022-08-22T02:56:25.801Z,97462.88
2022-08-22T02:58:59.232Z,97460.22
2022-08-22T03:01:40.757Z,97455.66
2022-08-22T03:04:47.667Z,97458.53
2022-08-22T03:07:23.642Z,97459.75
2022-08-22T03:10:01.332Z,97449.91
2022-08-22T03:12:33.225Z,97455.84
2022-08-22T03:15:06.193Z,97446.34
2022-08-22T03:17:36.246Z,97449.41
2022-08-22T03:20:08.196Z,97448.38
2022-08-22T03:22:41.610Z,97435.03
2022-08-22T03:25:16.064Z,97445.03
2022-08-22T03:27:49.823Z,97441.69
2022-08-22T03:30:19.869Z,97441.50
2022-08-22T03:32:49.251Z,97431.38
2022-08-22T03:35:27.033Z,97441.84
2022-08-22T03:37:58.030Z,97434.75
2022-08-22T03:40:31.718Z,97440.84
2022-08-22T03:43:24.916Z,97432.72
2022-08-22T03:46:22.956Z,97436.47
2022-08-22T03:49:28.981Z,97432.56
2022-08-22T03:52:12.974Z,97434.44
2022-08-22T03:55:00.547Z,97438.38
2022-08-22T03:57:51.721Z,97434.81
2022-08-22T04:00:48.329Z,97438.53
2022-08-22T04:03:36.489Z,97438.41
2022-08-22T04:06:37.306Z,97439.38
2022-08-22T04:09:46.045Z,97433.47
2022-08-22T04:12:48.828Z,97437.53
2022-08-22T04:15:47.794Z,97441.78
2022-08-22T04:18:28.107Z,97439.44
2022-08-22T04:21:11.043Z,97436.72
2022-08-22T04:24:02.034Z,97435.25
2022-08-22T04:26:34.759Z,97443.34
2022-08-22T04:29:05.384Z,97453.69
2022-08-22T04:31:37.246Z,97451.47
2022-08-22T04:34:07.427Z,97439.81
2022-08-22T04:36:39.489Z,97438.28
2022-08-22T04:39:10.114Z,97436.91
2022-08-22T04:41:46.761Z,97438.13
2022-08-22T04:44:16.201Z,97438.44
2022-08-22T04:46:46.971Z,97442.53
2022-08-22T04:49:18.022Z,97436.41
2022-08-22T04:51:48.064Z,97440.66
2022-08-22T04:54:25.861Z,97434.72
2022-08-22T04:57:03.579Z,97440.47
2022-08-22T04:59:31.465Z,97447.22
2022-08-22T05:02:06.558Z,97444.69
2022-08-22T05:04:36.884Z,97450.97
2022-08-22T05:07:06.606Z,97448.06
2022-08-22T05:09:36.410Z,97444.84
2022-08-22T05:12:07.466Z,97444.66
2022-08-22T05:14:37.959Z,97450.56
2022-08-22T05:17:08.715Z,97457.66
2022-08-22T05:19:40.023Z,97454.94
2022-08-22T05:22:08.188Z,97455.06
2022-08-22T05:24:38.693Z,97459.28
2022-08-22T05:27:11.374Z,97461.44
2022-08-22T05:29:41.232Z,97460.56
2022-08-22T05:32:13.514Z,97458.66
2022-08-22T05:34:42.082Z,97459.09
2022-08-22T05:37:11.292Z,97458.84
2022-08-22T05:39:39.695Z,97458.38
2022-08-22T05:42:08.359Z,97461.81
2022-08-22T05:44:38.623Z,97458.97
2022-08-22T05:47:08.876Z,97466.13
2022-08-22T05:49:40.034Z,97459.84
2022-08-22T05:52:16.674Z,97463.91
2022-08-22T05:54:50.569Z,97462.50
2022-08-22T05:57:22.230Z,97454.34
2022-08-22T05:59:50.226Z,97450.81
2022-08-22T06:02:20.226Z,97453.34
2022-08-22T06:04:52.016Z,97459.44
2022-08-22T06:07:22.169Z,97446.66
2022-08-22T06:10:18.864Z,97460.25
2022-08-22T06:12:50.984Z,97455.78
2022-08-22T06:15:21.301Z,97456.13
2022-08-22T06:17:50.237Z,97463.41
2022-08-22T06:20:21.876Z,97469.09
2022-08-22T06:22:53.748Z,97463.66
2022-08-22T06:25:24.273Z,97457.75
2022-08-22T06:27:52.868Z,97461.00
2022-08-22T06:30:21.076Z,97467.78
2022-08-22T06:32:58.922Z,97470.69
2022-08-22T06:35:50.771Z,97469.72
2022-08-22T06:38:18.842Z,97471.72
2022-08-22T06:40:47.077Z,97478.13
2022-08-22T06:43:15.566Z,97469.44
2022-08-22T06:45:43.446Z,97467.38
2022-08-22T06:48:16.252Z,97466.63
2022-08-22T06:50:46.794Z,97466.38
2022-08-22T06:53:16.688Z,97469.78
2022-08-22T06:55:46.729Z,97465.06
2022-08-22T06:58:17.696Z,97468.22
2022-08-22T07:00:53.573Z,97470.97
2022-08-22T07:03:35.369Z,97469.75
2022-08-22T07:06:05.617Z,97476.09
2022-08-22T07:08:38.894Z,97475.63
2022-08-22T07:11:11.780Z,97471.94
2022-08-22T07:13:40.262Z,97470.63
2022-08-22T07:16:11.033Z,97468.88
2022-08-22T07:18:47.932Z,97472.81
2022-08-22T07:21:27.318Z,97463.19
2022-08-22T07:23:55.652Z,97468.38
2022-08-22T07:26:29.361Z,97469.25
2022-08-22T07:28:59.234Z,97477.25
2022-08-22T07:31:38.455Z,97475.06
2022-08-22T07:34:15.766Z,97478.63
2022-08-22T07:36:47.541Z,97479.50
2022-08-22T07:39:26.134Z,97475.41
2022-08-22T07:42:02.865Z,97474.63
2022-08-22T07:44:33.407Z,97480.22
2022-08-22T07:47:02.630Z,97478.75
2022-08-22T07:49:40.698Z,97475.06
2022-08-22T07:52:19.271Z,97481.59
2022-08-22T07:54:50.805Z,97482.03
2022-08-22T07:57:23.203Z,97478.47
2022-08-22T07:59:53.505Z,97481.44
2022-08-22T08:02:23.112Z,97479.81
2022-08-22T08:04:53.455Z,97483.38
2022-08-22T08:07:23.993Z,97485.91
2022-08-22T08:09:54.643Z,97478.81
2022-08-22T08:12:26.384Z,97474.81
2022-08-22T08:14:55.023Z,97469.56
2022-08-22T08:17:26.892Z,97476.91
2022-08-22T08:19:56.950Z,97468.31
2022-08-22T08:22:27.660Z,97465.34
2022-08-22T08:24:56.921Z,97460.69
2022-08-22T08:27:43.277Z,97455.00
2022-08-22T08:30:17.746Z,97454.78
2022-08-22T08:32:49.016Z,97456.16
2022-08-22T08:35:20.377Z,97449.47
2022-08-22T08:37:51.446Z,97463.16
2022-08-22T08:40:30.236Z,97453.44
2022-08-22T08:43:24.830Z,97451.69
2022-08-22T08:46:55.281Z,97449.03
2022-08-22T08:49:39.614Z,97437.41
2022-08-22T08:52:24.404Z,97439.69
2022-08-22T08:55:20.046Z,97436.94
2022-08-22T08:58:06.795Z,97439.88
2022-08-22T09:00:49.885Z,97432.63
2022-08-22T09:03:30.939Z,97432.19
2022-08-22T09:06:19.787Z,97417.41
2022-08-22T09:08:58.048Z,97419.38
2022-08-22T09:11:53.331Z,97418.28
2022-08-22T09:14:32.466Z,97418.16
2022-08-22T09:17:15.029Z,97419.69
2022-08-22T09:19:56.046Z,97415.00
2022-08-22T09:22:50.527Z,97421.81
2022-08-22T09:25:25.768Z,97409.31
2022-08-22T09:27:59.481Z,97411.28
2022-08-22T09:30:44.722Z,97412.91
2022-08-22T09:33:14.708Z,97415.72
2022-08-22T09:35:47.979Z,97410.69
2022-08-22T09:38:40.815Z,97412.59
2022-08-22T09:41:26.137Z,97403.44
2022-08-22T09:44:02.787Z,97403.84
2022-08-22T09:46:37.038Z,97402.16
2022-08-22T09:49:07.315Z,97401.03
2022-08-22T09:51:40.781Z,97400.41
2022-08-22T09:54:31.577Z,97396.59
2022-08-22T09:57:19.065Z,97388.41
2022-08-22T10:00:16.828Z,97388.88
2022-08-22T10:02:58.618Z,97389.84
2022-08-22T10:05:39.503Z,97383.44
2022-08-22T10:08:14.058Z,97389.47
2022-08-22T10:10:54.838Z,97386.94
2022-08-22T10:13:32.792Z,97390.56
2022-08-22T10:16:16.173Z,97382.06
2022-08-22T10:18:53.835Z,97383.06
2022-08-22T10:21:32.392Z,97384.75
2022-08-22T10:24:07.245Z,97374.66
2022-08-22T10:26:39.483Z,97377.97
2022-08-22T10:29:39.077Z,97382.78
2022-08-22T10:32:27.631Z,97377.91
2022-08-22T10:34:57.801Z,97368.47
2022-08-22T10:37:30.462Z,97379.63
2022-08-22T10:40:02.752Z,97376.56
2022-08-22T10:42:35.173Z,97383.56
2022-08-22T10:45:24.025Z,97376.53
2022-08-22T10:48:35.718Z,97373.13
2022-08-22T10:51:13.259Z,97374.16
2022-08-22T10:53:53.556Z,97376.00
2022-08-22T10:56:27.586Z,97370.06
2022-08-22T10:58:56.842Z,97372.28
2022-08-22T11:01:38.314Z,97370.16
2022-08-22T11:04:16.637Z,97373.75
2022-08-22T11:06:46.321Z,97381.66
2022-08-22T11:09:17.198Z,97373.06
2022-08-22T11:11:47.913Z,97365.09
2022-08-22T11:14:43.381Z,97357.56
2022-08-22T11:17:31.191Z,97357.81
2022-08-22T11:20:16.567Z,97359.47
2022-08-22T11:22:50.828Z,97357.47
2022-08-22T11:25:38.661Z,97355.53
2022-08-22T11:28:22.068Z,97357.47
2022-08-22T11:30:58.503Z,97356.13
2022-08-22T11:33:39.081Z,97352.66
2022-08-22T11:36:40.861Z,97351.25
2022-08-22T11:39:21.093Z,97348.63
2022-08-22T11:41:54.973Z,97343.53
2022-08-22T11:44:27.691Z,97343.22
2022-08-22T11:46:58.095Z,97345.81
2022-08-22T11:49:40.620Z,97340.09
2022-08-22T11:52:28.735Z,97333.38
2022-08-22T11:55:07.146Z,97333.88
2022-08-22T11:57:37.221Z,97332.03
2022-08-22T12:00:29.351Z,97333.88
2022-08-22T12:03:23.359Z,97333.41
2022-08-22T12:05:52.892Z,97327.22
2022-08-22T12:08:28.324Z,97329.41
2022-08-22T12:10:59.075Z,97332.06
2022-08-22T12:13:37.143Z,97322.16
2022-08-22T12:16:10.502Z,97323.81
2022-08-22T12:18:53.207Z,97322.41
2022-08-22T12:21:49.629Z,97316.88
2022-08-22T12:24:33.403Z,97311.16
2022-08-22T12:27:28.751Z,97313.97
2022-08-22T12:30:05.642Z,97314.38
2022-08-22T12:33:23.160Z,97317.78
2022-08-22T12:35:58.026Z,97304.59
2022-08-22T12:38:41.388Z,97303.94
2022-08-22T12:41:37.306Z,97309.16
2022-08-22T12:44:20.411Z,97302.44
2022-08-22T12:46:54.926Z,97295.31
2022-08-22T12:49:30.415Z,97301.66
2022-08-22T12:52:06.067Z,97292.94
2022-08-22T12:54:50.265Z,97291.00
2022-08-22T12:57:26.223Z,97292.59
2022-08-22T12:59:55.716Z,97297.34
2022-08-22T13:02:27.221Z,97291.50
2022-08-22T13:04:56.590Z,97297.25
2022-08-22T13:07:26.787Z,97292.28
2022-08-22T13:09:59.128Z,97288.34
2022-08-22T13:12:31.024Z,97289.91
2022-08-22T13:15:01.843Z,97287.34
2022-08-22T13:17:31.020Z,97296.59
2022-08-22T13:20:09.960Z,97289.22
2022-08-22T13:22:40.262Z,97297.31
2022-08-22T13:25:25.975Z,97291.09
2022-08-22T13:27:56.955Z,97296.81
2022-08-22T13:30:29.967Z,97282.56
2022-08-22T13:33:03.348Z,97284.25
2022-08-22T13:35:37.366Z,97281.13
2022-08-22T13:38:13.997Z,97279.91
2022-08-22T13:40:46.638Z,97282.66
2022-08-22T13:43:20.845Z,97284.72
2022-08-22T13:46:01.992Z,97277.84
2022-08-22T13:48:46.827Z,97279.94
2022-08-22T13:51:17.517Z,97283.88
2022-08-22T13:54:00.885Z,97279.75
2022-08-22T13:56:34.116Z,97279.94
2022-08-22T13:59:40.056Z,97271.19
2022-08-22T14:02:07.322Z,97276.31
2022-08-22T14:04:37.829Z,97279.66
2022-08-22T14:07:24.239Z,97275.84
2022-08-22T14:09:56.666Z,97272.38
2022-08-22T14:12:26.913Z,97271.22
2022-08-22T14:15:00.835Z,97271.25
2022-08-22T14:17:31.258Z,97268.28
2022-08-22T14:20:01.568Z,97271.59
2022-08-22T14:22:31.730Z,97269.91
2022-08-22T14:25:02.407Z,97271.38
2022-08-22T14:27:31.733Z,97266.03
2022-08-22T14:30:03.003Z,97270.78
2022-08-22T14:32:41.855Z,97271.28
2022-08-22T14:35:16.946Z,97270.69
2022-08-22T14:37:54.490Z,97268.06
2022-08-22T14:40:24.499Z,97260.09
2022-08-22T14:42:55.640Z,97263.06
2022-08-22T14:45:26.866Z,97266.19
2022-08-22T14:48:30.617Z,97261.84
2022-08-22T14:50:47.546Z,97257.50
2022-08-22T14:53:25.071Z,97256.25
2022-08-22T14:55:57.431Z,97254.44
2022-08-22T14:58:26.442Z,97258.69
2022-08-22T15:00:58.079Z,97260.50
2022-08-22T15:03:27.415Z,97256.03
2022-08-22T15:05:58.149Z,97258.28
2022-08-22T15:08:30.448Z,97258.56
2022-08-22T15:11:13.639Z,97258.34
2022-08-22T15:13:51.539Z,97255.50
2022-08-22T15:16:25.384Z,97249.44
2022-08-22T15:18:53.350Z,97251.91
2022-08-22T15:21:24.766Z,97239.63
2022-08-22T15:23:54.506Z,97228.72
2022-08-22T15:26:30.617Z,97234.28
2022-08-22T15:29:04.910Z,97223.78
2022-08-22T15:31:34.254Z,97224.13
2022-08-22T15:34:13.514Z,97231.97
2022-08-22T15:37:11.975Z,97230.28
2022-08-22T15:40:02.866Z,97225.75
2022-08-22T15:42:37.841Z,97221.34
2022-08-22T15:45:06.665Z,97222.47
2022-08-22T15:47:39.687Z,97221.00
2022-08-22T15:50:09.478Z,97214.00
2022-08-22T15:53:07.861Z,97219.59
2022-08-22T15:55:36.970Z,97221.91
2022-08-22T15:58:09.357Z,97223.03
2022-08-22T16:00:43.833Z,97218.91
2022-08-22T16:03:25.525Z,97214.84
2022-08-22T16:05:56.079Z,97220.41
2022-08-22T16:08:26.675Z,97205.22
2022-08-22T16:10:57.397Z,97212.41
2022-08-22T16:13:40.430Z,97207.22
2022-08-22T16:16:11.201Z,97212.13
2022-08-22T16:19:17.440Z,97207.59
2022-08-22T16:22:05.875Z,97207.09
2022-08-22T16:24:38.016Z,97210.63
2022-08-22T16:27:18.553Z,97210.94
2022-08-22T16:29:46.570Z,97216.63
2022-08-22T16:32:14.498Z,97216.78
2022-08-22T16:34:45.890Z,97218.78
2022-08-22T16:37:35.190Z,97215.13
2022-08-22T16:40:14.554Z,97218.63
2022-08-22T16:42:44.109Z,97214.31
2022-08-22T16:45:17.702Z,97216.47
2022-08-22T16:47:54.534Z,97216.63
2022-08-22T16:50:33.048Z,97219.44
2022-08-22T16:53:06.593Z,97222.63
2022-08-22T16:56:10.619Z,97210.28
2022-08-22T16:58:57.824Z,97221.09
2022-08-22T17:01:41.377Z,97208.69
2022-08-22T17:04:15.602Z,97218.41
2022-08-22T17:06:54.538Z,97218.03
2022-08-22T17:09:45.945Z,97221.25
2022-08-22T17:12:20.434Z,97215.03
2022-08-22T17:14:52.059Z,97215.34
2022-08-22T17:17:25.531Z,97221.31
2022-08-22T17:20:11.651Z,97218.16
2022-08-22T17:22:42.993Z,97221.84
2022-08-22T17:25:18.839Z,97218.06
2022-08-22T17:27:50.015Z,97215.63
2022-08-22T17:30:22.651Z,97216.13
2022-08-22T17:33:00.295Z,97219.44
2022-08-22T17:35:35.148Z,97217.31
2022-08-22T17:38:09.401Z,97213.75
2022-08-22T17:40:39.690Z,97221.56
2022-08-22T17:43:15.054Z,97213.31
2022-08-22T17:45:50.778Z,97214.94
2022-08-22T17:48:20.453Z,97216.41
2022-08-22T17:50:50.251Z,97216.72
2022-08-22T17:53:28.792Z,97218.38
2022-08-22T17:56:01.787Z,97219.97
2022-08-22T17:58:43.442Z,97225.09
2022-08-22T18:01:14.916Z,97228.66
2022-08-22T18:03:46.351Z,97219.00
2022-08-22T18:06:19.455Z,97223.81
2022-08-22T18:11:42.473Z,97232.38
2022-08-22T18:14:13.203Z,97230.66
2022-08-22T18:16:45.580Z,97229.28
2022-08-22T18:19:15.098Z,97226.59
2022-08-22T18:21:44.348Z,97232.63
2022-08-22T18:24:20.241Z,97232.34
2022-08-22T18:26:53.063Z,97236.88
2022-08-22T18:29:22.102Z,97239.47
2022-08-22T18:31:52.723Z,97248.66
2022-08-22T18:34:27.494Z,97246.75
2022-08-22T18:36:58.696Z,97254.06
2022-08-22T18:39:30.324Z,97251.94
2022-08-22T18:42:01.671Z,97246.00
2022-08-22T18:44:32.373Z,97250.09
2022-08-22T18:47:00.394Z,97252.50
2022-08-22T18:49:41.961Z,97250.97
2022-08-22T18:52:28.824Z,97252.16
2022-08-22T18:55:08.926Z,97254.31
2022-08-22T18:57:48.377Z,97249.06
2022-08-22T19:00:19.610Z,97263.03
2022-08-22T19:03:15.705Z,97263.88
2022-08-22T19:06:14.804Z,97263.53
2022-08-22T19:09:10.547Z,97264.59
2022-08-22T19:11:46.772Z,97260.28
2022-08-22T19:14:26.130Z,97271.59
2022-08-22T19:17:19.631Z,97270.53
2022-08-22T19:20:12.263Z,97273.13
2022-08-22T19:22:40.422Z,97277.56
2022-08-22T19:25:20.479Z,97277.91
2022-08-22T19:28:24.388Z,97279.44
2022-08-22T19:30:53.069Z,97274.13
2022-08-22T19:33:29.256Z,97283.16
2022-08-22T19:36:13.222Z,97276.28
2022-08-22T19:38:56.589Z,97284.00
2022-08-22T19:41:47.472Z,97280.50
2022-08-22T19:44:35.434Z,97279.28
2022-08-22T19:47:07.424Z,97287.28
2022-08-22T19:49:37.294Z,97282.25
2022-08-22T19:52:13.419Z,97277.81
2022-08-22T19:54:46.171Z,97281.63
2022-08-22T19:57:16.009Z,97281.25
2022-08-22T19:59:51.112Z,97280.19
2022-08-22T20:02:25.525Z,97288.41
2022-08-22T20:05:18.520Z,97291.13
2022-08-22T20:07:58.538Z,97284.81
2022-08-22T20:10:29.647Z,97293.28
2022-08-22T20:13:07.660Z,97299.59
2022-08-22T20:16:10.994Z,97294.56
2022-08-22T20:19:15.022Z,97293.28
2022-08-22T20:21:58.249Z,97292.44
2022-08-22T20:24:31.282Z,97293.28
2022-08-22T20:27:15.783Z,97289.72
2022-08-22T20:29:49.208Z,97285.09
2022-08-22T20:32:20.277Z,97290.34
2022-08-22T20:34:48.217Z,97286.41
2022-08-22T20:37:32.468Z,97287.88
2022-08-22T20:40:54.531Z,97290.56
2022-08-22T20:43:10.438Z,97285.91
2022-08-22T20:45:40.141Z,97285.09
2022-08-22T20:48:10.934Z,97278.31
2022-08-22T20:50:48.526Z,97281.50
2022-08-22T20:53:17.572Z,97274.34
2022-08-22T20:55:53.501Z,97275.81
2022-08-22T20:58:22.782Z,97271.19
2022-08-22T21:00:53.151Z,97269.31
2022-08-22T21:03:30.520Z,97265.94
2022-08-22T21:05:58.713Z,97278.78
2022-08-22T21:08:27.362Z,97274.78
2022-08-22T21:11:15.384Z,97264.91
2022-08-22T21:13:43.233Z,97264.47
2022-08-22T21:16:13.707Z,97267.44
2022-08-22T21:18:45.842Z,97267.44
2022-08-22T21:21:17.426Z,97263.69
2022-08-22T21:23:47.156Z,97269.16
2022-08-22T21:26:21.497Z,97262.44
2022-08-22T21:28:57.331Z,97265.16
2022-08-22T21:31:26.530Z,97270.69
2022-08-22T21:33:56.571Z,97270.63
2022-08-22T21:36:25.276Z,97266.84
2022-08-22T21:38:57.782Z,97276.69
2022-08-22T21:41:28.944Z,97267.31
2022-08-22T21:43:56.814Z,97274.47
2022-08-22T21:46:26.316Z,97279.53
2022-08-22T21:49:03.501Z,97270.69
2022-08-22T21:51:41.972Z,97270.06
2022-08-22T21:54:39.655Z,97273.25
2022-08-22T21:57:35.545Z,97266.47
2022-08-22T22:00:07.446Z,97267.34
2022-08-22T22:02:37.913Z,97269.06
2022-08-22T22:05:11.375Z,97273.44
2022-08-22T22:07:40.228Z,97263.63
2022-08-22T22:10:09.236Z,97264.69
2022-08-22T22:12:39.716Z,97268.09
2022-08-22T22:15:08.524Z,97271.44
2022-08-22T22:17:36.493Z,97275.84
2022-08-22T22:20:05.727Z,97274.63
2022-08-22T22:22:38.148Z,97279.25
2022-08-22T22:25:40.644Z,97277.38
2022-08-22T22:28:03.607Z,97276.94
2022-08-22T22:30:31.824Z,97273.78
2022-08-22T22:33:00.673Z,97272.53
2022-08-22T22:35:28.494Z,97282.19
2022-08-22T22:37:57.952Z,97278.22
2022-08-22T22:40:25.968Z,97276.13
2022-08-22T22:42:54.289Z,97273.63
2022-08-22T22:45:22.314Z,97279.72
2022-08-22T22:47:50.208Z,97275.72
2022-08-22T22:50:18.555Z,97276.16
2022-08-22T22:52:46.392Z,97276.13
2022-08-22T22:55:24.186Z,97278.03
2022-08-22T22:57:58.951Z,97276.34
2022-08-22T23:00:31.215Z,97277.84
2022-08-22T23:03:00.343Z,97277.41
2022-08-22T23:05:28.973Z,97275.53
2022-08-22T23:07:57.076Z,97273.88
2022-08-22T23:10:26.575Z,97275.53
2022-08-22T23:12:54.526Z,97274.50
2022-08-22T23:15:22.495Z,97277.59
2022-08-22T23:17:50.477Z,97281.84
2022-08-22T23:20:18.487Z,97275.34
2022-08-22T23:22:46.379Z,97273.66
2022-08-22T23:25:14.418Z,97276.56
2022-08-22T23:27:43.761Z,97274.66
2022-08-22T23:30:13.348Z,97278.03
2022-08-22T23:32:41.301Z,97285.16
2022-08-22T23:35:09.991Z,97278.66
2022-08-22T23:37:37.867Z,97279.28
2022-08-22T23:40:07.982Z,97271.31
2022-08-22T23:42:35.939Z,97275.47
2022-08-22T23:45:05.720Z,97274.44
2022-08-22T23:47:33.586Z,97274.63
2022-08-22T23:50:05.901Z,97280.31
2022-08-22T23:52:34.341Z,97279.06
2022-08-22T23:55:02.336Z,97280.72
2022-08-22T23:57:30.190Z,97286.81
2022-08-22T23:59:58.688Z,97284.75
